Gnadenhutten, Ohio
Current Conditions -  °F | °C
As of 11:53 AM on Thursday 23 Oct 2014 (Local Time) from KPHD Reporting Station
Broken Clouds Broken Clouds  
Wind Chill: 54°   Ceiling: 2300
Heat Index: 54°   Visibility: 10mi
Dew Point: 45°   Wind: 9mph
Humidity: 72%   Direction: 290°WNW
Pressure: 30.2"   Gusts: NA
Location:  40.36°N, 81.43°W
Report Text: KPHD 231553Z AUTO 29008KT 10SM SCT017 BKN023 12/07 A3020 RMK AO2 SLP230 T01220072
Loading
Personal Weather Stations






























Interactive Weather Map
Tropical Storm Tracking
New forecast layout! Learn more

10-Day Weather Forecast

Advertisements
Track Severe Weather on mobile